Time;durP1;ratioP1;P1;durP2;ratioP2;P2;SDS_P1;SDS_P2;PMS_P1;PMS_P2;Temp;Humidity;BMP_temperature;BMP_pressure;BME280_temperature;BME280_humidity;BME280_pressure;Samples;Min_cycle;Max_cycle;Signal;HPM_P1;HPM_P2
2022/06/12 00:02:10;;;;;;;6.43;4.28;;;21.20;75.60;;;;;;5058455;28;20532;-77
2022/06/12 00:04:36;;;;;;;5.43;4.32;;;21.10;75.70;;;;;;5057840;28;20047;-78
2022/06/12 00:07:02;;;;;;;8.23;4.50;;;21.10;75.90;;;;;;5065137;28;20028;-77
2022/06/12 00:09:28;;;;;;;5.65;4.10;;;21.10;76.10;;;;;;5078186;28;20111;-77
2022/06/12 00:11:54;;;;;;;5.68;4.32;;;21.10;77.00;;;;;;5061775;28;20033;-77
2022/06/12 00:14:19;;;;;;;6.72;5.07;;;21.00;76.70;;;;;;5057728;28;20047;-77
2022/06/12 00:16:45;;;;;;;6.53;4.93;;;21.00;76.90;;;;;;5057985;28;20020;-77
2022/06/12 00:19:12;;;;;;;5.78;4.20;;;21.00;77.30;;;;;;5058295;28;20024;-77
2022/06/12 00:21:38;;;;;;;6.85;4.50;;;21.00;77.50;;;;;;5070943;28;20027;-77
2022/06/12 00:24:08;;;;;;;5.68;4.65;;;20.90;77.60;;;;;;5076320;28;20410;-77
2022/06/12 00:26:50;;;;;;;6.03;4.25;;;20.90;77.90;;;;;;5075861;28;20032;-78
2022/06/12 00:29:26;;;;;;;7.13;5.15;;;20.90;78.20;;;;;;5064077;28;20028;-77
2022/06/12 00:31:57;;;;;;;6.10;4.22;;;20.80;78.30;;;;;;5054652;28;20119;-80
2022/06/12 00:34:26;;;;;;;9.18;4.70;;;20.80;78.70;;;;;;5065807;28;20040;-80
2022/06/12 00:36:53;;;;;;;8.32;5.00;;;20.70;78.80;;;;;;5074611;28;20028;-80
2022/06/12 00:39:19;;;;;;;9.63;4.70;;;20.70;79.00;;;;;;5062404;28;20230;-80
2022/06/12 00:41:48;;;;;;;9.70;5.30;;;20.70;79.20;;;;;;5055398;28;20108;-81
2022/06/12 00:44:18;;;;;;;8.00;4.57;;;20.60;79.40;;;;;;5054658;28;20025;-80
2022/06/12 00:46:55;;;;;;;7.85;4.85;;;20.60;79.70;;;;;;5060164;28;20047;-78
2022/06/12 00:49:42;;;;;;;6.88;4.43;;;20.60;79.80;;;;;;5074242;28;20060;-79
2022/06/12 00:52:33;;;;;;;9.57;6.10;;;20.60;80.20;;;;;;5073563;28;20025;-78
2022/06/12 00:55:06;;;;;;;6.35;5.18;;;20.60;80.30;;;;;;5073676;28;20123;-77
2022/06/12 00:57:33;;;;;;;6.47;5.27;;;20.50;80.60;;;;;;5056901;28;20074;-77
2022/06/12 01:00:04;;;;;;;7.05;5.40;;;20.50;80.50;;;;;;5066331;28;20086;-80
2022/06/12 01:02:32;;;;;;;7.35;5.72;;;20.50;81.00;;;;;;5073765;28;20039;-82
2022/06/12 01:07:54;;;;;;;6.15;4.95;;;20.50;81.50;;;;;;5063134;28;20055;-81
2022/06/12 01:10:23;;;;;;;7.43;5.45;;;20.40;81.60;;;;;;5058734;28;20104;-78
2022/06/12 01:12:54;;;;;;;6.80;5.63;;;20.40;81.70;;;;;;5053655;28;20507;-77
2022/06/12 01:15:30;;;;;;;6.40;5.15;;;20.30;82.10;;;;;;5054010;28;20484;-77
2022/06/12 01:17:58;;;;;;;6.60;5.78;;;20.30;82.30;;;;;;5062470;28;20056;-77
2022/06/12 01:20:29;;;;;;;9.35;5.35;;;20.30;82.60;;;;;;5073736;28;20024;-77
2022/06/12 01:23:07;;;;;;;6.63;5.50;;;20.30;82.90;;;;;;5073909;28;20024;-77
2022/06/12 01:26:14;;;;;;;9.57;5.65;;;20.30;83.30;;;;;;5073833;28;20066;-77
2022/06/12 01:29:03;;;;;;;7.25;5.35;;;20.20;83.30;;;;;;5053266;28;20040;-77
2022/06/12 01:31:28;;;;;;;6.90;5.40;;;20.20;84.10;;;;;;5056618;28;20059;-79
2022/06/12 01:34:00;;;;;;;7.15;5.43;;;20.20;83.60;;;;;;5053127;28;20098;-78
2022/06/12 01:36:45;;;;;;;8.50;6.18;;;20.20;84.10;;;;;;5053219;28;20056;-78
2022/06/12 01:39:46;;;;;;;8.07;5.53;;;20.10;84.40;;;;;;5052148;28;20025;-78
2022/06/12 01:42:18;;;;;;;6.53;4.85;;;20.10;85.00;;;;;;5054003;28;20102;-78
2022/06/12 01:45:21;;;;;;;10.68;6.07;;;20.10;84.60;;;;;;5053476;28;20064;-79
2022/06/12 01:48:25;;;;;;;6.13;5.13;;;20.10;84.60;;;;;;5018662;28;20061;-78
2022/06/12 01:51:03;;;;;;;6.70;5.00;;;20.10;85.00;;;;;;5052927;28;20504;-77
2022/06/12 01:53:37;;;;;;;8.52;5.95;;;20.00;85.50;;;;;;5056769;28;20037;-78
2022/06/12 01:56:23;;;;;;;7.18;5.78;;;20.00;85.80;;;;;;5073228;28;20348;-80
2022/06/12 01:59:02;;;;;;;8.30;5.80;;;20.00;86.00;;;;;;5066030;28;20039;-81
2022/06/12 02:01:46;;;;;;;6.85;5.45;;;19.90;86.20;;;;;;5052374;28;20484;-81
2022/06/12 02:04:16;;;;;;;;;;;19.90;86.70;;;;;;5053018;28;20041;-80
2022/06/12 02:07:19;;;;;;;8.02;5.40;;;19.90;85.30;;;;;;5059763;28;19944;-80
2022/06/12 02:09:56;;;;;;;6.82;6.07;;;19.80;86.60;;;;;;5044749;28;20044;-80
2022/06/12 02:15:21;;;;;;;7.38;5.85;;;19.80;87.50;;;;;;5052942;28;20024;-82
2022/06/12 02:17:55;;;;;;;6.45;5.45;;;19.80;87.90;;;;;;5050826;28;20033;-82
2022/06/12 02:20:23;;;;;;;;;;;19.80;88.20;;;;;;5052883;28;20025;-82
2022/06/12 02:22:50;;;;;;;9.20;6.15;;;19.80;86.90;;;;;;5053370;28;19915;-82
2022/06/12 02:25:25;;;;;;;7.38;5.97;;;19.80;88.10;;;;;;5052392;28;20037;-81
2022/06/12 02:28:08;;;;;;;9.25;6.75;;;19.80;88.70;;;;;;5052077;28;20051;-80
2022/06/12 02:30:38;;;;;;;6.80;6.10;;;19.80;88.90;;;;;;5052841;28;20116;-81
2022/06/12 02:33:10;;;;;;;9.88;6.72;;;19.80;89.10;;;;;;5052665;28;20369;-78
2022/06/12 02:35:56;;;;;;;8.50;6.47;;;19.80;89.30;;;;;;5063921;28;20033;-81
2022/06/12 02:38:29;;;;;;;8.80;6.40;;;19.80;89.50;;;;;;5070152;28;20032;-80
2022/06/12 02:41:05;;;;;;;8.63;6.45;;;19.80;89.70;;;;;;5056832;28;20032;-79
2022/06/12 02:43:34;;;;;;;9.48;6.63;;;19.80;90.00;;;;;;5055682;28;20037;-79
2022/06/12 02:46:14;;;;;;;8.23;6.47;;;19.80;90.10;;;;;;5052899;28;20044;-79
2022/06/12 02:48:40;;;;;;;8.65;6.63;;;19.70;90.10;;;;;;5051759;28;20064;-79
2022/06/12 02:51:17;;;;;;;7.95;5.88;;;19.70;90.20;;;;;;5055713;28;20107;-78
2022/06/12 02:53:58;;;;;;;7.80;5.95;;;19.80;90.40;;;;;;5071352;28;20040;-79
2022/06/12 02:56:30;;;;;;;9.70;6.10;;;19.80;90.40;;;;;;5066804;28;20040;-78
2022/06/12 02:59:20;;;;;;;6.95;5.70;;;19.90;90.50;;;;;;5051977;28;20029;-78
2022/06/12 03:01:58;;;;;;;8.38;6.68;;;19.90;90.60;;;;;;5055418;28;20046;-78
2022/06/12 03:04:32;;;;;;;9.52;6.38;;;19.90;90.60;;;;;;5063686;28;20107;-79
2022/06/12 03:06:57;;;;;;;12.00;5.90;;;19.90;90.70;;;;;;5051987;28;20140;-78
2022/06/12 03:09:23;;;;;;;7.45;6.70;;;19.90;90.70;;;;;;5051184;28;20532;-79
2022/06/12 03:11:49;;;;;;;8.75;6.25;;;19.90;90.70;;;;;;5058385;28;20437;-79
2022/06/12 03:14:19;;;;;;;10.15;7.18;;;19.90;90.80;;;;;;5061801;28;20033;-78
2022/06/12 03:16:46;;;;;;;6.82;5.93;;;19.90;90.90;;;;;;5052069;28;20500;-79
2022/06/12 03:19:14;;;;;;;7.82;6.53;;;19.90;90.90;;;;;;5051685;28;20197;-79
2022/06/12 03:22:10;;;;;;;9.38;6.07;;;20.00;91.00;;;;;;5051517;28;20025;-79
2022/06/12 03:25:05;;;;;;;6.78;6.13;;;19.90;91.00;;;;;;5051386;28;20535;-78
2022/06/12 03:28:02;;;;;;;6.93;6.05;;;20.00;91.00;;;;;;5051377;28;20486;-79
2022/06/12 03:30:30;;;;;;;8.25;5.78;;;19.90;91.00;;;;;;5068069;28;20496;-73
2022/06/12 03:33:44;;;;;;;7.70;6.18;;;19.90;91.10;;;;;;5051479;28;20390;-82
2022/06/12 03:36:13;;;;;;;7.75;6.95;;;19.90;91.10;;;;;;5062319;28;20041;-79
2022/06/12 03:39:00;;;;;;;8.05;6.35;;;19.90;91.20;;;;;;5051589;28;20372;-76
2022/06/12 03:41:42;;;;;;;11.00;6.30;;;20.00;91.30;;;;;;5051345;28;20376;-78
2022/06/12 03:44:15;;;;;;;8.00;6.70;;;19.90;91.40;;;;;;5051261;28;20412;-79
2022/06/12 03:47:15;;;;;;;7.45;6.47;;;20.00;91.50;;;;;;5051470;28;20036;-79
2022/06/12 03:49:44;;;;;;;8.07;6.85;;;20.00;91.40;;;;;;5050966;28;20392;-78
2022/06/12 03:52:22;;;;;;;11.40;6.90;;;20.00;91.60;;;;;;5059915;28;20063;-76
2022/06/12 03:55:00;;;;;;;7.68;6.32;;;20.00;91.60;;;;;;5071053;28;20376;-76
2022/06/12 03:57:52;;;;;;;8.35;6.50;;;20.10;91.60;;;;;;5059254;28;20033;-74
2022/06/12 04:00:41;;;;;;;10.75;6.68;;;20.10;91.60;;;;;;5051244;28;20378;-76
2022/06/12 04:03:18;;;;;;;8.32;6.70;;;20.10;91.80;;;;;;5054383;28;20480;-78
2022/06/12 04:05:54;;;;;;;9.13;6.85;;;20.10;91.70;;;;;;5068156;28;20502;-79
2022/06/12 04:08:24;;;;;;;7.72;6.53;;;20.10;91.70;;;;;;5066887;28;20041;-78
2022/06/12 04:10:52;;;;;;;11.35;6.85;;;20.10;91.80;;;;;;5071086;28;20514;-78
2022/06/12 04:13:19;;;;;;;8.68;7.00;;;20.20;91.80;;;;;;5073800;28;20032;-77
2022/06/12 04:15:54;;;;;;;9.38;7.28;;;20.20;91.80;;;;;;5074647;28;20039;-77
2022/06/12 04:18:20;;;;;;;9.20;7.25;;;20.10;91.80;;;;;;5069181;28;20584;-77
2022/06/12 04:20:54;;;;;;;11.68;7.68;;;20.10;91.90;;;;;;5074615;28;20037;-77
2022/06/12 04:23:42;;;;;;;9.48;7.18;;;20.10;92.00;;;;;;5056020;28;20056;-78
2022/06/12 04:26:25;;;;;;;8.48;6.50;;;20.00;92.00;;;;;;5055017;28;20499;-80
2022/06/12 04:28:58;;;;;;;9.65;7.13;;;20.00;92.10;;;;;;5070344;28;20506;-80
2022/06/12 04:31:24;;;;;;;8.93;6.78;;;20.10;92.10;;;;;;5074466;28;20602;-80
2022/06/12 04:34:14;;;;;;;7.93;6.72;;;20.20;92.20;;;;;;5060175;28;20123;-79
2022/06/12 04:36:41;;;;;;;8.10;6.35;;;20.30;92.20;;;;;;5055209;28;20029;-79
2022/06/12 04:39:08;;;;;;;8.38;6.38;;;20.40;92.00;;;;;;5054792;28;20025;-79
2022/06/12 04:41:35;;;;;;;9.15;6.55;;;20.40;91.90;;;;;;5060801;28;20032;-76
2022/06/12 04:44:06;;;;;;;7.25;6.50;;;20.30;92.00;;;;;;5054806;28;20100;-77
2022/06/12 04:46:53;;;;;;;7.60;6.40;;;20.40;91.80;;;;;;5055252;28;20056;-77
2022/06/12 04:49:40;;;;;;;9.93;6.75;;;20.40;91.70;;;;;;5053082;28;20104;-78
2022/06/12 04:52:27;;;;;;;9.40;6.90;;;20.40;91.90;;;;;;5054739;28;20029;-76
2022/06/12 04:55:13;;;;;;;6.90;6.20;;;20.40;92.20;;;;;;5065384;28;20048;-76
2022/06/12 04:57:39;;;;;;;9.55;7.00;;;20.30;92.80;;;;;;5053779;28;20358;-81
2022/06/12 05:00:06;;;;;;;9.10;7.70;;;20.40;92.90;;;;;;5053338;28;20036;-81
2022/06/12 05:02:32;;;;;;;9.57;7.18;;;20.40;93.00;;;;;;5053932;28;20464;-81
2022/06/12 05:04:57;;;;;;;12.40;8.13;;;20.40;93.20;;;;;;5052791;28;20079;-81
2022/06/12 05:07:23;;;;;;;9.57;7.60;;;20.40;93.30;;;;;;5054326;28;20037;-81
2022/06/12 05:09:49;;;;;;;11.27;7.95;;;20.30;93.50;;;;;;5054272;28;20082;-81
2022/06/12 05:12:14;;;;;;;8.88;7.68;;;20.30;93.60;;;;;;5063475;28;20029;-80
2022/06/12 05:14:41;;;;;;;9.52;7.75;;;20.30;93.80;;;;;;5053793;28;20037;-80
2022/06/12 05:17:12;;;;;;;8.60;7.18;;;20.40;93.90;;;;;;5054272;28;20032;-79
2022/06/12 05:19:40;;;;;;;10.02;7.10;;;20.50;94.10;;;;;;5053091;28;20033;-80
2022/06/12 05:22:07;;;;;;;10.60;8.50;;;20.50;94.50;;;;;;5074047;28;20495;-80
2022/06/12 05:24:34;;;;;;;10.27;8.38;;;20.60;94.80;;;;;;5072470;28;20475;-80
2022/06/12 05:27:05;;;;;;;9.55;8.10;;;20.60;94.80;;;;;;5053560;28;20033;-79
2022/06/12 05:29:34;;;;;;;9.95;8.02;;;20.70;94.80;;;;;;5056632;28;20398;-74
2022/06/12 05:32:00;;;;;;;9.98;7.35;;;20.80;94.90;;;;;;5073064;28;20117;-75
2022/06/12 05:34:26;;;;;;;14.02;8.85;;;20.90;94.90;;;;;;5069190;28;20480;-75
2022/06/12 05:36:53;;;;;;;10.90;8.20;;;21.00;94.70;;;;;;5056795;28;20492;-75
2022/06/12 05:39:19;;;;;;;10.52;8.05;;;21.00;94.50;;;;;;5072523;28;20497;-75
2022/06/12 05:41:45;;;;;;;9.20;7.72;;;21.00;94.40;;;;;;5073656;28;20031;-74
2022/06/12 05:44:12;;;;;;;12.18;8.43;;;21.00;94.40;;;;;;5072089;28;20472;-75
2022/06/12 05:46:38;;;;;;;9.90;7.97;;;21.10;94.20;;;;;;5053982;28;20032;-73
2022/06/12 05:49:05;;;;;;;9.77;7.50;;;21.20;94.20;;;;;;5053474;28;20035;-75
2022/06/12 05:51:32;;;;;;;10.10;7.75;;;21.30;94.40;;;;;;5052792;28;20087;-74
2022/06/12 05:53:58;;;;;;;11.00;8.38;;;21.30;94.00;;;;;;5068279;28;20036;-75
2022/06/12 05:56:27;;;;;;;11.35;7.88;;;21.40;94.10;;;;;;5072747;28;20017;-74
2022/06/12 05:58:54;;;;;;;10.18;8.65;;;21.40;94.00;;;;;;5060877;28;20063;-74
2022/06/12 06:01:22;;;;;;;8.20;7.30;;;21.50;93.60;;;;;;5052665;28;20074;-74
2022/06/12 06:03:49;;;;;;;9.45;8.23;;;21.50;93.70;;;;;;5066831;28;20032;-75
2022/06/12 06:06:20;;;;;;;10.05;7.75;;;21.60;93.70;;;;;;5053896;28;20099;-75
2022/06/12 06:08:46;;;;;;;8.50;7.65;;;21.70;93.70;;;;;;5052097;28;20049;-75
2022/06/12 06:11:11;;;;;;;9.23;7.93;;;21.70;93.50;;;;;;5052820;28;20032;-74
2022/06/12 06:13:37;;;;;;;9.32;7.95;;;21.80;93.20;;;;;;5051518;28;20060;-74
2022/06/12 06:16:03;;;;;;;9.38;7.95;;;21.90;93.20;;;;;;5054349;28;20023;-76
2022/06/12 06:18:29;;;;;;;8.98;7.93;;;22.00;93.20;;;;;;5061505;28;20103;-77
2022/06/12 06:20:58;;;;;;;9.75;7.95;;;22.00;93.20;;;;;;5071910;28;20035;-78
2022/06/12 06:23:23;;;;;;;10.38;9.00;;;22.00;92.90;;;;;;5059066;28;20070;-78
2022/06/12 06:25:49;;;;;;;8.70;7.28;;;22.00;92.90;;;;;;5071627;28;20032;-75
2022/06/12 06:28:15;;;;;;;10.77;8.20;;;22.00;92.90;;;;;;5057255;28;20138;-74
2022/06/12 06:30:41;;;;;;;9.63;8.23;;;22.00;92.90;;;;;;5052473;28;20123;-78
2022/06/12 06:33:07;;;;;;;9.52;8.10;;;22.00;93.10;;;;;;5058004;28;20067;-76
2022/06/12 06:35:33;;;;;;;8.98;8.05;;;22.00;93.00;;;;;;5071731;28;20044;-76
2022/06/12 06:37:59;;;;;;;9.65;7.88;;;22.10;92.80;;;;;;5067873;28;20051;-75
2022/06/12 06:40:27;;;;;;;8.88;7.85;;;22.10;93.00;;;;;;5080151;28;20016;-75
2022/06/12 06:42:53;;;;;;;9.77;7.85;;;22.20;93.10;;;;;;5062139;28;20068;-74
2022/06/12 06:48:04;;;;;;;9.80;7.72;;;22.30;92.70;;;;;;5054473;28;20443;-75
2022/06/12 06:50:31;;;;;;;9.07;8.18;;;22.40;92.40;;;;;;5051907;28;20037;-74
2022/06/12 06:52:57;;;;;;;9.25;7.60;;;22.40;92.50;;;;;;5051737;28;20029;-75
2022/06/12 06:55:23;;;;;;;11.18;7.65;;;22.50;92.50;;;;;;5061927;28;20402;-74
2022/06/12 06:57:49;;;;;;;7.97;6.95;;;22.60;92.30;;;;;;5057828;28;20434;-73
2022/06/12 07:00:22;;;;;;;9.25;7.00;;;22.70;91.80;;;;;;5052014;28;20074;-75
2022/06/12 07:02:48;;;;;;;8.40;7.03;;;22.70;91.60;;;;;;5051320;28;20108;-75
2022/06/12 07:05:14;;;;;;;8.43;6.57;;;22.70;91.80;;;;;;5055926;28;20372;-75
2022/06/12 07:07:41;;;;;;;7.50;6.38;;;22.80;92.10;;;;;;5064719;28;20127;-75
2022/06/12 07:10:08;;;;;;;7.53;6.40;;;22.90;92.00;;;;;;5070519;28;20063;-74
2022/06/12 07:12:34;;;;;;;7.78;6.60;;;23.00;91.90;;;;;;5059750;28;20056;-74
2022/06/12 07:15:00;;;;;;;8.80;6.00;;;23.10;91.40;;;;;;5062098;28;20115;-74
2022/06/12 07:17:26;;;;;;;7.88;5.45;;;23.20;90.70;;;;;;5055138;28;20032;-74
2022/06/12 07:19:52;;;;;;;8.18;6.18;;;23.20;90.50;;;;;;5057634;28;20484;-74
2022/06/12 07:22:17;;;;;;;7.65;6.18;;;23.20;90.30;;;;;;5051544;28;20057;-74
2022/06/12 07:24:43;;;;;;;8.18;5.90;;;23.20;90.30;;;;;;5051283;28;20472;-73
2022/06/12 07:27:09;;;;;;;9.23;6.00;;;23.10;90.40;;;;;;5051922;28;20021;-74
2022/06/12 07:29:35;;;;;;;8.40;5.35;;;23.00;90.20;;;;;;5058339;28;20024;-74
2022/06/12 07:32:01;;;;;;;6.82;5.80;;;23.00;90.20;;;;;;5061212;28;20056;-74
2022/06/12 07:34:26;;;;;;;8.10;5.88;;;23.00;89.70;;;;;;5051083;28;20072;-74
2022/06/12 07:36:53;;;;;;;6.88;5.65;;;23.00;89.90;;;;;;5055686;28;20083;-74
2022/06/12 07:39:30;;;;;;;6.18;5.45;;;23.00;89.60;;;;;;5062960;28;20085;-74
2022/06/12 07:41:58;;;;;;;7.88;6.53;;;23.00;89.40;;;;;;5079892;28;20036;-74
2022/06/12 07:44:27;;;;;;;6.88;5.75;;;23.00;89.00;;;;;;5069368;28;20025;-75
2022/06/12 07:46:55;;;;;;;7.03;5.50;;;23.00;88.90;;;;;;5056129;28;20416;-74
2022/06/12 07:49:22;;;;;;;8.05;5.70;;;23.00;89.40;;;;;;5054935;28;20120;-74
2022/06/12 07:51:49;;;;;;;6.90;5.18;;;23.00;89.40;;;;;;5056915;28;20082;-75
2022/06/12 07:54:15;;;;;;;6.55;5.20;;;23.20;90.10;;;;;;5063754;28;20477;-75
2022/06/12 07:56:42;;;;;;;7.38;5.43;;;23.30;89.50;;;;;;5070573;28;20056;-76
2022/06/12 07:59:08;;;;;;;5.85;4.88;;;23.30;89.20;;;;;;5057619;28;20071;-75
2022/06/12 08:01:35;;;;;;;6.40;5.18;;;23.30;88.40;;;;;;5070355;28;20024;-73
2022/06/12 08:04:02;;;;;;;6.18;4.22;;;23.40;88.10;;;;;;5058731;28;20075;-73
2022/06/12 08:06:29;;;;;;;6.22;4.00;;;23.40;87.30;;;;;;5066270;28;20375;-74
2022/06/12 08:08:56;;;;;;;5.55;4.45;;;23.50;86.40;;;;;;5054896;28;20056;-72
2022/06/12 08:11:22;;;;;;;6.85;4.25;;;23.50;85.90;;;;;;5069986;28;20032;-72
2022/06/12 08:13:49;;;;;;;5.28;4.20;;;23.50;85.10;;;;;;5067734;28;20037;-71
2022/06/12 08:16:14;;;;;;;6.18;4.10;;;23.60;85.70;;;;;;5053899;28;20221;-71
2022/06/12 08:18:40;;;;;;;4.10;3.70;;;23.60;86.00;;;;;;5064117;28;20245;-70
2022/06/12 08:21:11;;;;;;;4.85;3.50;;;23.70;85.70;;;;;;5056112;28;20385;-70
2022/06/12 08:23:39;;;;;;;4.75;3.85;;;23.80;85.80;;;;;;5065418;28;20021;-71
2022/06/12 08:26:07;;;;;;;6.47;4.10;;;23.90;84.70;;;;;;5066281;28;20101;-70
2022/06/12 08:28:37;;;;;;;4.22;2.90;;;24.00;84.30;;;;;;5053500;28;20025;-70
2022/06/12 08:31:06;;;;;;;5.25;2.97;;;24.10;84.20;;;;;;5061293;28;20036;-70
2022/06/12 08:33:33;;;;;;;4.90;2.88;;;24.20;83.20;;;;;;5064636;28;20036;-70
2022/06/12 08:35:59;;;;;;;4.70;2.80;;;24.40;81.40;;;;;;5054070;28;20025;-70
2022/06/12 08:38:25;;;;;;;4.80;3.22;;;24.50;81.00;;;;;;5058212;28;20024;-70
2022/06/12 08:41:16;;;;;;;3.75;2.63;;;24.50;80.10;;;;;;5077810;28;20370;-71
2022/06/12 08:44:02;;;;;;;5.63;3.05;;;24.50;80.40;;;;;;5073075;28;20142;-71
2022/06/12 08:46:38;;;;;;;3.40;2.63;;;24.70;79.40;;;;;;5080194;28;20066;-71
2022/06/12 08:49:24;;;;;;;3.55;3.08;;;24.70;78.60;;;;;;5089697;28;20024;-71
2022/06/12 08:52:12;;;;;;;4.20;3.20;;;24.80;78.00;;;;;;5077008;28;20064;-71
2022/06/12 08:54:45;;;;;;;5.35;2.78;;;24.80;77.70;;;;;;5061173;28;20083;-71
2022/06/12 08:57:15;;;;;;;4.55;2.70;;;24.90;78.10;;;;;;5068415;28;20064;-71
2022/06/12 08:59:43;;;;;;;5.10;3.20;;;24.90;77.80;;;;;;5071813;28;20102;-71
2022/06/12 09:02:23;;;;;;;5.00;2.97;;;25.10;77.20;;;;;;5067829;28;20047;-71
2022/06/12 09:04:49;;;;;;;6.13;3.08;;;25.10;77.50;;;;;;5070562;28;20089;-71
2022/06/12 09:07:35;;;;;;;4.68;2.47;;;25.20;77.90;;;;;;5057573;28;20036;-71
2022/06/12 09:10:41;;;;;;;4.63;2.63;;;25.30;75.50;;;;;;5066323;28;20443;-70
2022/06/12 09:13:17;;;;;;;4.57;2.58;;;25.40;76.20;;;;;;5036433;28;20105;-71
2022/06/12 09:16:13;;;;;;;4.72;2.63;;;25.50;76.30;;;;;;5062254;28;20357;-70
2022/06/12 09:18:53;;;;;;;4.22;2.35;;;25.60;75.60;;;;;;5060185;28;20040;-70
2022/06/12 09:21:42;;;;;;;6.18;2.70;;;25.80;75.00;;;;;;5058896;28;20357;-70
2022/06/12 09:24:29;;;;;;;4.88;2.60;;;25.90;74.60;;;;;;5064328;28;20043;-69
2022/06/12 09:27:21;;;;;;;5.63;2.88;;;26.00;73.10;;;;;;5085800;28;20392;-70
2022/06/12 09:30:01;;;;;;;3.83;2.53;;;26.00;72.00;;;;;;5072199;28;20028;-70
2022/06/12 09:32:55;;;;;;;7.28;2.58;;;26.00;72.60;;;;;;5070709;28;20050;-70
2022/06/12 09:35:52;;;;;;;3.30;2.30;;;26.00;71.80;;;;;;5051909;28;20032;-69
2022/06/12 09:38:21;;;;;;;4.03;2.50;;;26.10;70.80;;;;;;5055242;28;20392;-69
2022/06/12 09:41:20;;;;;;;6.82;3.28;;;26.10;71.70;;;;;;5069029;28;20025;-69
2022/06/12 09:44:23;;;;;;;5.75;3.25;;;26.10;70.60;;;;;;5052652;28;20458;-71
2022/06/12 09:46:53;;;;;;;6.15;2.60;;;26.10;70.40;;;;;;5058993;28;20498;-71
2022/06/12 09:49:31;;;;;;;4.97;2.58;;;26.10;69.40;;;;;;5067517;28;20457;-70
2022/06/12 09:52:02;;;;;;;9.55;2.83;;;26.10;68.70;;;;;;5071624;28;20024;-71
2022/06/12 09:54:42;;;;;;;4.35;2.38;;;26.20;69.00;;;;;;5058887;28;20361;-70
2022/06/12 09:57:20;;;;;;;4.78;2.50;;;26.30;69.00;;;;;;5057660;28;20024;-71
2022/06/12 10:00:01;;;;;;;5.28;2.55;;;26.40;68.30;;;;;;5055766;28;20420;-71
2022/06/12 10:02:32;;;;;;;6.40;3.10;;;26.40;68.90;;;;;;5060620;28;20051;-71
2022/06/12 10:05:09;;;;;;;5.25;2.90;;;26.50;68.00;;;;;;5058522;28;20387;-68
2022/06/12 10:07:52;;;;;;;5.07;2.90;;;26.60;68.00;;;;;;5052158;28;20049;-70
2022/06/12 10:10:18;;;;;;;4.90;2.47;;;26.60;68.40;;;;;;5054533;28;20488;-70
2022/06/12 10:12:47;;;;;;;3.97;2.50;;;26.60;67.20;;;;;;5059033;28;20039;-72
2022/06/12 10:15:23;;;;;;;6.70;3.53;;;26.70;67.30;;;;;;5069991;28;20025;-71
2022/06/12 10:17:56;;;;;;;5.57;2.72;;;26.70;67.20;;;;;;5069649;28;20023;-71
2022/06/12 10:20:32;;;;;;;5.55;2.85;;;26.80;67.40;;;;;;5072684;28;20096;-71
2022/06/12 10:22:59;;;;;;;6.05;2.80;;;26.80;66.70;;;;;;5069296;28;20043;-71
2022/06/12 10:25:35;;;;;;;4.70;2.85;;;26.80;66.20;;;;;;5060337;28;20029;-72
2022/06/12 10:28:19;;;;;;;4.45;2.65;;;26.80;66.40;;;;;;5065443;28;20038;-71
2022/06/12 10:31:04;;;;;;;5.97;2.80;;;26.80;67.00;;;;;;5070453;28;20029;-71
2022/06/12 10:33:43;;;;;;;4.10;2.50;;;26.90;66.90;;;;;;5058676;28;20388;-71
2022/06/12 10:36:29;;;;;;;4.47;2.60;;;26.90;65.20;;;;;;5063851;28;20162;-71
2022/06/12 10:39:10;;;;;;;4.20;2.50;;;26.90;66.10;;;;;;5063961;28;20107;-71
2022/06/12 10:41:47;;;;;;;6.07;2.40;;;27.00;65.00;;;;;;5067932;28;20029;-71
2022/06/12 10:44:33;;;;;;;4.75;2.08;;;27.00;64.90;;;;;;5068921;28;20032;-73
2022/06/12 10:47:22;;;;;;;4.55;2.40;;;27.00;65.20;;;;;;5063555;28;20033;-70
2022/06/12 10:50:01;;;;;;;7.35;3.33;;;27.10;65.70;;;;;;5063654;28;20537;-71
2022/06/12 10:52:27;;;;;;;5.70;3.17;;;27.20;65.40;;;;;;5061041;28;20037;-69
2022/06/12 10:54:52;;;;;;;5.05;2.58;;;27.30;65.30;;;;;;5054627;28;20044;-71
2022/06/12 10:57:30;;;;;;;7.82;2.45;;;27.30;64.90;;;;;;5053974;28;20518;-71
2022/06/12 11:00:08;;;;;;;5.68;2.42;;;27.30;65.70;;;;;;5065320;28;20115;-71
2022/06/12 11:03:12;;;;;;;5.65;2.70;;;27.20;64.50;;;;;;5054741;28;20441;-71
2022/06/12 11:05:51;;;;;;;6.18;2.28;;;27.10;64.40;;;;;;5055293;28;20044;-71
2022/06/12 11:08:35;;;;;;;6.78;2.97;;;27.10;64.70;;;;;;5067264;28;20090;-71
2022/06/12 11:11:10;;;;;;;5.85;2.40;;;27.10;63.70;;;;;;5061174;28;20033;-71
2022/06/12 11:14:03;;;;;;;7.43;2.88;;;27.20;62.30;;;;;;5065101;28;20041;-71
2022/06/12 11:17:06;;;;;;;5.72;2.53;;;27.10;61.50;;;;;;5065135;28;20037;-70
2022/06/12 11:20:11;;;;;;;4.72;2.00;;;27.20;62.10;;;;;;5052573;28;20033;-71
2022/06/12 11:22:53;;;;;;;5.57;2.03;;;27.30;61.40;;;;;;5053224;28;20036;-71
2022/06/12 11:25:19;;;;;;;7.40;2.72;;;27.20;61.00;;;;;;5061259;28;20053;-71
2022/06/12 11:28:23;;;;;;;5.90;2.78;;;27.20;60.90;;;;;;5068918;28;20025;-71
2022/06/12 11:30:54;;;;;;;5.07;2.15;;;27.20;61.50;;;;;;5058446;28;20124;-71
2022/06/12 11:33:47;;;;;;;3.47;2.25;;;27.30;61.10;;;;;;5065974;28;20029;-70
2022/06/12 11:36:38;;;;;;;5.88;2.58;;;27.30;60.80;;;;;;5059535;28;20470;-71
2022/06/12 11:39:22;;;;;;;7.13;2.47;;;27.40;61.10;;;;;;5053548;28;20360;-70
2022/06/12 11:42:14;;;;;;;9.07;2.97;;;27.40;60.80;;;;;;5059918;28;20029;-70
2022/06/12 11:45:10;;;;;;;4.88;2.45;;;27.40;60.50;;;;;;5066335;28;20060;-70
2022/06/12 11:48:02;;;;;;;3.55;1.85;;;27.40;60.60;;;;;;5042584;28;20044;-71
2022/06/12 11:50:49;;;;;;;6.05;2.40;;;27.40;60.40;;;;;;5060293;28;20025;-71
2022/06/12 11:53:23;;;;;;;4.40;2.50;;;27.40;60.40;;;;;;5050624;28;20476;-71
2022/06/12 11:56:22;;;;;;;5.55;2.13;;;27.40;59.90;;;;;;5059305;28;20487;-71
2022/06/12 11:58:47;;;;;;;6.28;3.00;;;27.30;59.50;;;;;;5067862;28;20036;-71
2022/06/12 12:01:28;;;;;;;5.75;2.50;;;27.20;59.30;;;;;;5066328;28;20028;-70
2022/06/12 12:04:10;;;;;;;5.80;3.30;;;27.30;59.10;;;;;;5071352;28;20039;-71
2022/06/12 12:07:21;;;;;;;4.63;2.53;;;27.30;59.00;;;;;;5061903;28;20036;-70
2022/06/12 12:09:59;;;;;;;5.60;2.20;;;27.30;58.40;;;;;;5068036;28;20033;-74
2022/06/12 12:12:30;;;;;;;6.05;2.40;;;27.40;58.80;;;;;;5050564;28;20025;-72
2022/06/12 12:14:59;;;;;;;5.45;2.28;;;27.40;58.80;;;;;;5050977;28;20045;-73
2022/06/12 12:17:29;;;;;;;6.10;2.40;;;27.40;58.60;;;;;;5050837;28;20021;-72
2022/06/12 12:20:04;;;;;;;3.72;2.35;;;27.50;58.30;;;;;;5052571;28;20036;-74
2022/06/12 12:22:38;;;;;;;5.18;3.03;;;27.30;57.80;;;;;;5063755;28;20021;-71
2022/06/12 12:25:23;;;;;;;4.43;2.58;;;27.30;58.40;;;;;;5055140;28;20029;-72
2022/06/12 12:27:55;;;;;;;11.65;5.65;;;27.20;58.10;;;;;;5054133;28;20036;-74
2022/06/12 12:30:31;;;;;;;9.50;6.00;;;27.20;58.10;;;;;;5057731;28;20108;-76
2022/06/12 12:33:00;;;;;;;11.98;5.82;;;27.20;58.10;;;;;;5058529;28;20507;-72
2022/06/12 12:41:13;;;;;;;;;;;27.30;57.60;;;;;;5063562;28;20033;-72
2022/06/12 12:43:51;;;;;;;4.30;2.47;;;27.30;58.00;;;;;;5074319;28;19954;-71
2022/06/12 12:46:16;;;;;;;5.20;2.72;;;27.20;57.90;;;;;;5071328;28;20033;-70
2022/06/12 12:48:47;;;;;;;5.80;3.50;;;27.20;57.80;;;;;;5066443;28;20088;-71
2022/06/12 12:51:29;;;;;;;13.45;5.28;;;27.20;58.10;;;;;;5060560;28;20040;-73
2022/06/12 12:54:07;;;;;;;9.05;4.65;;;27.30;58.40;;;;;;5064576;28;20068;-73
2022/06/12 12:56:34;;;;;;;11.18;4.85;;;27.40;58.20;;;;;;5063573;28;20164;-74
2022/06/12 12:59:10;;;;;;;10.05;4.45;;;27.40;57.40;;;;;;5071872;28;20483;-74
2022/06/12 13:01:43;;;;;;;5.15;2.97;;;27.30;57.00;;;;;;5071841;28;20029;-73
2022/06/12 13:04:34;;;;;;;5.15;2.72;;;27.20;56.30;;;;;;5075638;28;20407;-74
2022/06/12 13:07:18;;;;;;;8.05;2.58;;;27.20;56.50;;;;;;5074180;28;20044;-73
2022/06/12 13:09:58;;;;;;;5.45;2.35;;;27.30;55.50;;;;;;5081275;28;20531;-73
2022/06/12 13:12:51;;;;;;;6.50;2.92;;;27.20;55.40;;;;;;5061399;28;20021;-73
2022/06/12 13:15:31;;;;;;;5.32;2.45;;;27.20;55.00;;;;;;5073233;28;20049;-73
2022/06/12 13:18:08;;;;;;;4.53;2.67;;;27.10;55.00;;;;;;5071996;28;20035;-73
2022/06/12 13:20:44;;;;;;;6.32;2.88;;;26.90;55.30;;;;;;5072263;28;20422;-73
2022/06/12 13:23:26;;;;;;;9.25;3.55;;;26.90;55.50;;;;;;5070370;28;20037;-73
2022/06/12 13:25:54;;;;;;;7.25;3.03;;;26.90;55.60;;;;;;5070651;28;20031;-72
2022/06/12 13:28:26;;;;;;;6.05;2.78;;;27.10;54.90;;;;;;5071238;28;20028;-72
2022/06/12 13:30:54;;;;;;;4.35;2.33;;;27.20;54.30;;;;;;5068450;28;20028;-73
2022/06/12 13:33:32;;;;;;;4.82;2.55;;;27.30;53.00;;;;;;5056850;28;20082;-73
2022/06/12 13:36:09;;;;;;;5.97;2.70;;;27.50;53.70;;;;;;5085937;28;20032;-74
2022/06/12 13:38:46;;;;;;;6.30;2.90;;;27.60;52.80;;;;;;5064488;28;20021;-74
2022/06/12 13:41:35;;;;;;;6.30;2.75;;;27.80;52.50;;;;;;5059883;28;20033;-73